sensor_id;sensor_type;location;lat;lon;timestamp;pressure;altitude;pressure_sealevel;temperature;humidity
50774;BME280;36745;48.544;8.918;2023-03-21T00:02:04;97571.75;;;8.07;80.19
50774;BME280;36745;48.544;8.918;2023-03-21T00:05:25;97568.59;;;8.09;80.14
50774;BME280;36745;48.544;8.918;2023-03-21T00:08:44;97568.59;;;8.09;79.90
50774;BME280;36745;48.544;8.918;2023-03-21T00:12:04;97556.88;;;8.05;79.94
50774;BME280;36745;48.544;8.918;2023-03-21T00:15:27;97558.50;;;8.02;79.77
50774;BME280;36745;48.544;8.918;2023-03-21T00:18:49;97559.75;;;7.97;80.62
50774;BME280;36745;48.544;8.918;2023-03-21T00:22:10;97559.31;;;7.99;81.23
50774;BME280;36745;48.544;8.918;2023-03-21T00:25:30;97553.53;;;7.93;80.99
50774;BME280;36745;48.544;8.918;2023-03-21T00:28:51;97553.00;;;8.02;79.89
50774;BME280;36745;48.544;8.918;2023-03-21T00:32:11;97548.81;;;7.94;80.75
50774;BME280;36745;48.544;8.918;2023-03-21T00:35:31;97547.31;;;7.89;81.38
50774;BME280;36745;48.544;8.918;2023-03-21T00:38:50;97541.41;;;7.91;82.32
50774;BME280;36745;48.544;8.918;2023-03-21T00:42:10;97542.84;;;7.99;82.36
50774;BME280;36745;48.544;8.918;2023-03-21T00:45:30;97542.00;;;8.02;81.80
50774;BME280;36745;48.544;8.918;2023-03-21T00:48:50;97533.53;;;7.93;81.91
50774;BME280;36745;48.544;8.918;2023-03-21T00:52:09;97535.84;;;7.94;82.94
50774;BME280;36745;48.544;8.918;2023-03-21T00:55:29;97530.97;;;8.06;82.31
50774;BME280;36745;48.544;8.918;2023-03-21T00:58:49;97526.66;;;8.05;82.84
50774;BME280;36745;48.544;8.918;2023-03-21T01:02:10;97519.16;;;8.09;82.61
50774;BME280;36745;48.544;8.918;2023-03-21T01:05:38;97520.72;;;8.10;82.59
50774;BME280;36745;48.544;8.918;2023-03-21T01:09:18;97516.03;;;8.07;82.86
50774;BME280;36745;48.544;8.918;2023-03-21T01:12:39;97521.53;;;8.07;82.83
50774;BME280;36745;48.544;8.918;2023-03-21T01:15:59;97521.94;;;8.05;82.75
50774;BME280;36745;48.544;8.918;2023-03-21T01:19:23;97522.25;;;8.11;83.37
50774;BME280;36745;48.544;8.918;2023-03-21T01:22:47;97516.81;;;8.07;83.21
50774;BME280;36745;48.544;8.918;2023-03-21T01:26:07;97518.31;;;8.12;83.05
50774;BME280;36745;48.544;8.918;2023-03-21T01:29:28;97514.78;;;8.11;83.06
50774;BME280;36745;48.544;8.918;2023-03-21T01:32:47;97513.19;;;8.14;82.92
50774;BME280;36745;48.544;8.918;2023-03-21T01:36:08;97519.75;;;8.20;83.05
50774;BME280;36745;48.544;8.918;2023-03-21T01:39:32;97515.78;;;8.21;83.19
50774;BME280;36745;48.544;8.918;2023-03-21T01:42:53;97515.78;;;8.21;83.50
50774;BME280;36745;48.544;8.918;2023-03-21T01:46:20;97502.50;;;8.19;83.22
50774;BME280;36745;48.544;8.918;2023-03-21T01:49:43;97508.03;;;8.16;83.23
50774;BME280;36745;48.544;8.918;2023-03-21T01:53:04;97505.28;;;8.16;83.28
50774;BME280;36745;48.544;8.918;2023-03-21T01:56:28;97496.22;;;8.19;83.71
50774;BME280;36745;48.544;8.918;2023-03-21T01:59:49;97502.13;;;8.17;83.84
50774;BME280;36745;48.544;8.918;2023-03-21T02:03:10;97503.41;;;8.13;83.91
50774;BME280;36745;48.544;8.918;2023-03-21T02:06:38;97498.75;;;8.10;83.71
50774;BME280;36745;48.544;8.918;2023-03-21T02:10:02;97497.13;;;8.12;83.48
50774;BME280;36745;48.544;8.918;2023-03-21T02:13:23;97487.78;;;8.10;83.78
50774;BME280;36745;48.544;8.918;2023-03-21T02:16:56;97496.41;;;8.08;83.97
50774;BME280;36745;48.544;8.918;2023-03-21T02:20:51;97494.09;;;8.07;84.35
50774;BME280;36745;48.544;8.918;2023-03-21T02:31:40;97485.47;;;8.05;83.86
50774;BME280;36745;48.544;8.918;2023-03-21T02:35:39;97482.91;;;7.94;84.06
50774;BME280;36745;48.544;8.918;2023-03-21T02:46:44;97487.53;;;7.77;84.98
50774;BME280;36745;48.544;8.918;2023-03-21T02:53:35;97482.47;;;7.76;85.07
50774;BME280;36745;48.544;8.918;2023-03-21T02:56:58;97488.38;;;7.74;84.94
50774;BME280;36745;48.544;8.918;2023-03-21T03:00:22;97483.81;;;7.64;85.29
50774;BME280;36745;48.544;8.918;2023-03-21T03:03:44;97475.22;;;7.62;85.46
50774;BME280;36745;48.544;8.918;2023-03-21T03:07:28;97476.06;;;7.59;85.26
50774;BME280;36745;48.544;8.918;2023-03-21T03:21:50;97475.38;;;7.55;86.30
50774;BME280;36745;48.544;8.918;2023-03-21T03:25:19;97470.69;;;7.52;86.38
50774;BME280;36745;48.544;8.918;2023-03-21T03:28:45;97471.63;;;7.42;86.01
50774;BME280;36745;48.544;8.918;2023-03-21T03:32:11;97475.72;;;7.30;86.57
50774;BME280;36745;48.544;8.918;2023-03-21T03:35:33;97467.88;;;7.32;86.62
50774;BME280;36745;48.544;8.918;2023-03-21T03:38:54;97466.38;;;7.28;86.48
50774;BME280;36745;48.544;8.918;2023-03-21T03:42:17;97466.47;;;7.21;86.54
50774;BME280;36745;48.544;8.918;2023-03-21T03:45:43;97466.63;;;7.10;86.65
50774;BME280;36745;48.544;8.918;2023-03-21T03:49:15;97466.69;;;7.06;87.04
50774;BME280;36745;48.544;8.918;2023-03-21T03:52:40;97460.59;;;6.95;86.92
50774;BME280;36745;48.544;8.918;2023-03-21T03:56:03;97448.56;;;6.86;87.59
50774;BME280;36745;48.544;8.918;2023-03-21T03:59:25;97464.97;;;6.89;87.59
50774;BME280;36745;48.544;8.918;2023-03-21T04:02:45;97461.66;;;6.74;87.63
50774;BME280;36745;48.544;8.918;2023-03-21T04:06:05;97464.88;;;6.66;87.13
50774;BME280;36745;48.544;8.918;2023-03-21T04:09:25;97454.09;;;6.52;87.23
50774;BME280;36745;48.544;8.918;2023-03-21T04:12:48;97454.19;;;6.45;87.63
50774;BME280;36745;48.544;8.918;2023-03-21T04:16:09;97455.03;;;6.42;87.16
50774;BME280;36745;48.544;8.918;2023-03-21T04:19:29;97452.88;;;6.22;86.66
50774;BME280;36745;48.544;8.918;2023-03-21T04:22:49;97440.47;;;6.14;87.95
50774;BME280;36745;48.544;8.918;2023-03-21T04:26:09;97439.72;;;6.10;87.94
50774;BME280;36745;48.544;8.918;2023-03-21T04:29:29;97443.66;;;6.09;88.03
50774;BME280;36745;48.544;8.918;2023-03-21T04:32:50;97443.75;;;5.99;87.92
50774;BME280;36745;48.544;8.918;2023-03-21T04:36:12;97443.09;;;5.84;87.89
50774;BME280;36745;48.544;8.918;2023-03-21T04:39:43;97453.69;;;5.78;88.67
50774;BME280;36745;48.544;8.918;2023-03-21T04:43:04;97451.72;;;5.79;88.65
50774;BME280;36745;48.544;8.918;2023-03-21T04:46:24;97443.22;;;5.70;87.57
50774;BME280;36745;48.544;8.918;2023-03-21T04:49:44;97442.94;;;5.61;87.49
50774;BME280;36745;48.544;8.918;2023-03-21T04:53:06;97444.97;;;5.46;88.13
50774;BME280;36745;48.544;8.918;2023-03-21T04:56:27;97447.38;;;5.40;88.87
50774;BME280;36745;48.544;8.918;2023-03-21T04:59:54;97446.88;;;5.53;89.48
50774;BME280;36745;48.544;8.918;2023-03-21T05:03:14;97457.47;;;5.51;88.44
50774;BME280;36745;48.544;8.918;2023-03-21T05:06:39;97454.41;;;5.41;89.28
50774;BME280;36745;48.544;8.918;2023-03-21T05:10:00;97453.63;;;5.44;89.31
50774;BME280;36745;48.544;8.918;2023-03-21T05:13:20;97453.66;;;5.37;89.48
50774;BME280;36745;48.544;8.918;2023-03-21T05:16:41;97464.94;;;5.43;90.45
50774;BME280;36745;48.544;8.918;2023-03-21T05:20:08;97466.78;;;5.57;90.25
50774;BME280;36745;48.544;8.918;2023-03-21T05:23:29;97462.13;;;5.54;89.52
50774;BME280;36745;48.544;8.918;2023-03-21T05:26:50;97465.63;;;5.54;90.38
50774;BME280;36745;48.544;8.918;2023-03-21T05:30:16;97465.94;;;5.67;90.18
50774;BME280;36745;48.544;8.918;2023-03-21T05:33:35;97463.53;;;5.69;90.50
50774;BME280;36745;48.544;8.918;2023-03-21T05:36:55;97465.09;;;5.70;90.51
50774;BME280;36745;48.544;8.918;2023-03-21T05:40:15;97462.00;;;5.68;90.35
50774;BME280;36745;48.544;8.918;2023-03-21T05:43:35;97461.16;;;5.74;89.97
50774;BME280;36745;48.544;8.918;2023-03-21T05:46:55;97469.41;;;5.71;89.92
50774;BME280;36745;48.544;8.918;2023-03-21T05:50:14;97458.91;;;5.66;90.01
50774;BME280;36745;48.544;8.918;2023-03-21T05:53:35;97467.41;;;5.75;90.23
50774;BME280;36745;48.544;8.918;2023-03-21T05:56:55;97471.25;;;5.81;90.66
50774;BME280;36745;48.544;8.918;2023-03-21T06:03:35;97471.97;;;5.92;90.06
50774;BME280;36745;48.544;8.918;2023-03-21T06:06:54;97471.53;;;5.97;90.03
50774;BME280;36745;48.544;8.918;2023-03-21T06:10:14;97466.78;;;6.01;90.07
50774;BME280;36745;48.544;8.918;2023-03-21T06:13:34;97467.06;;;6.10;90.01
50774;BME280;36745;48.544;8.918;2023-03-21T06:16:54;97469.31;;;6.22;89.69
50774;BME280;36745;48.544;8.918;2023-03-21T06:20:14;97461.09;;;6.22;89.19
50774;BME280;36745;48.544;8.918;2023-03-21T06:23:33;97462.19;;;6.28;89.75
50774;BME280;36745;48.544;8.918;2023-03-21T06:26:54;97455.78;;;6.42;89.80
50774;BME280;36745;48.544;8.918;2023-03-21T06:30:15;97461.03;;;6.60;88.47
50774;BME280;36745;48.544;8.918;2023-03-21T06:33:35;97455.06;;;6.68;88.59
50774;BME280;36745;48.544;8.918;2023-03-21T06:36:54;97456.25;;;6.67;88.51
50774;BME280;36745;48.544;8.918;2023-03-21T06:40:14;97463.94;;;6.80;88.53
50774;BME280;36745;48.544;8.918;2023-03-21T06:43:34;97459.94;;;6.84;88.21
50774;BME280;36745;48.544;8.918;2023-03-21T06:46:54;97471.25;;;6.86;88.00
50774;BME280;36745;48.544;8.918;2023-03-21T06:50:14;97470.63;;;7.05;87.81
50774;BME280;36745;48.544;8.918;2023-03-21T06:53:34;97461.25;;;7.03;88.11
50774;BME280;36745;48.544;8.918;2023-03-21T06:56:54;97451.59;;;7.22;88.76
50774;BME280;36745;48.544;8.918;2023-03-21T07:00:15;97452.03;;;7.43;88.02
50774;BME280;36745;48.544;8.918;2023-03-21T07:03:35;97452.69;;;7.51;87.36
50774;BME280;36745;48.544;8.918;2023-03-21T07:06:56;97443.88;;;7.63;87.15
50774;BME280;36745;48.544;8.918;2023-03-21T07:10:16;97457.16;;;7.65;86.45
50774;BME280;36745;48.544;8.918;2023-03-21T07:13:36;97449.53;;;7.76;86.69
50774;BME280;36745;48.544;8.918;2023-03-21T07:16:55;97454.72;;;7.93;86.43
50774;BME280;36745;48.544;8.918;2023-03-21T07:20:16;97455.75;;;7.99;85.97
50774;BME280;36745;48.544;8.918;2023-03-21T07:23:35;97453.75;;;8.04;84.65
50774;BME280;36745;48.544;8.918;2023-03-21T07:26:56;97449.44;;;8.02;84.97
50774;BME280;36745;48.544;8.918;2023-03-21T07:30:16;97455.03;;;8.19;85.34
50774;BME280;36745;48.544;8.918;2023-03-21T07:33:36;97451.22;;;8.36;84.13
50774;BME280;36745;48.544;8.918;2023-03-21T07:36:56;97448.94;;;8.51;83.48
50774;BME280;36745;48.544;8.918;2023-03-21T07:40:16;97449.91;;;8.60;84.62
50774;BME280;36745;48.544;8.918;2023-03-21T07:43:35;97453.59;;;8.73;83.34
50774;BME280;36745;48.544;8.918;2023-03-21T07:46:55;97447.28;;;8.93;84.19
50774;BME280;36745;48.544;8.918;2023-03-21T07:50:15;97450.53;;;8.88;83.02
50774;BME280;36745;48.544;8.918;2023-03-21T07:53:35;97438.00;;;9.03;84.40
50774;BME280;36745;48.544;8.918;2023-03-21T07:56:55;97449.41;;;9.37;84.23
50774;BME280;36745;48.544;8.918;2023-03-21T08:00:16;97437.63;;;9.69;83.64
50774;BME280;36745;48.544;8.918;2023-03-21T08:03:41;97434.44;;;9.87;82.29
50774;BME280;36745;48.544;8.918;2023-03-21T08:07:01;97434.53;;;10.12;83.06
50774;BME280;36745;48.544;8.918;2023-03-21T08:10:22;97435.16;;;10.20;80.80
50774;BME280;36745;48.544;8.918;2023-03-21T08:13:41;97433.44;;;9.93;78.77
50774;BME280;36745;48.544;8.918;2023-03-21T08:17:02;97434.44;;;9.87;80.08
50774;BME280;36745;48.544;8.918;2023-03-21T08:20:22;97424.25;;;10.00;80.54
50774;BME280;36745;48.544;8.918;2023-03-21T08:23:42;97426.94;;;10.32;79.60
50774;BME280;36745;48.544;8.918;2023-03-21T08:27:02;97422.88;;;10.37;78.23
50774;BME280;36745;48.544;8.918;2023-03-21T08:30:23;97424.28;;;10.58;79.58
50774;BME280;36745;48.544;8.918;2023-03-21T08:33:44;97415.91;;;10.74;78.50
50774;BME280;36745;48.544;8.918;2023-03-21T08:37:05;97414.91;;;10.68;76.37
50774;BME280;36745;48.544;8.918;2023-03-21T08:40:25;97415.16;;;10.86;78.02
50774;BME280;36745;48.544;8.918;2023-03-21T08:43:45;97411.31;;;11.21;78.49
50774;BME280;36745;48.544;8.918;2023-03-21T08:47:05;97402.56;;;11.48;78.63
50774;BME280;36745;48.544;8.918;2023-03-21T08:50:25;97402.22;;;11.59;77.33
50774;BME280;36745;48.544;8.918;2023-03-21T08:53:48;97402.78;;;11.54;75.72
50774;BME280;36745;48.544;8.918;2023-03-21T08:57:10;97394.34;;;11.70;75.94
50774;BME280;36745;48.544;8.918;2023-03-21T09:00:30;97398.75;;;11.93;76.78
50774;BME280;36745;48.544;8.918;2023-03-21T09:03:50;97401.00;;;12.07;76.23
50774;BME280;36745;48.544;8.918;2023-03-21T09:07:10;97398.81;;;12.24;75.37
50774;BME280;36745;48.544;8.918;2023-03-21T09:10:33;97399.50;;;12.15;73.17
50774;BME280;36745;48.544;8.918;2023-03-21T09:13:53;97411.34;;;12.15;73.74
50774;BME280;36745;48.544;8.918;2023-03-21T09:17:13;97401.25;;;12.22;72.11
50774;BME280;36745;48.544;8.918;2023-03-21T09:20:33;97399.13;;;12.47;72.76
50774;BME280;36745;48.544;8.918;2023-03-21T09:23:56;97403.44;;;12.70;72.89
50774;BME280;36745;48.544;8.918;2023-03-21T09:27:18;97389.75;;;12.97;73.24
50774;BME280;36745;48.544;8.918;2023-03-21T09:30:41;97390.88;;;13.09;72.06
50774;BME280;36745;48.544;8.918;2023-03-21T09:34:01;97385.47;;;13.45;72.49
50774;BME280;36745;48.544;8.918;2023-03-21T09:37:20;97388.16;;;13.18;68.37
50774;BME280;36745;48.544;8.918;2023-03-21T09:48:18;97382.13;;;13.11;67.99
50774;BME280;36745;48.544;8.918;2023-03-21T09:51:46;97376.78;;;13.65;68.80
50774;BME280;36745;48.544;8.918;2023-03-21T09:55:26;97382.03;;;13.91;68.16
50774;BME280;36745;48.544;8.918;2023-03-21T09:58:53;97372.94;;;13.81;66.06
50774;BME280;36745;48.544;8.918;2023-03-21T10:02:32;97373.88;;;13.87;64.97
50774;BME280;36745;48.544;8.918;2023-03-21T10:05:55;97378.34;;;14.03;64.11
50774;BME280;36745;48.544;8.918;2023-03-21T10:09:20;97361.72;;;14.03;64.86
50774;BME280;36745;48.544;8.918;2023-03-21T10:12:43;97363.69;;;14.11;63.79
50774;BME280;36745;48.544;8.918;2023-03-21T10:16:26;97360.47;;;13.95;62.73
50774;BME280;36745;48.544;8.918;2023-03-21T10:19:49;97351.53;;;14.18;63.98
50774;BME280;36745;48.544;8.918;2023-03-21T10:23:15;97354.00;;;14.43;63.33
50774;BME280;36745;48.544;8.918;2023-03-21T10:26:35;97349.97;;;14.62;63.73
50774;BME280;36745;48.544;8.918;2023-03-21T10:29:55;97342.22;;;14.66;62.73
50774;BME280;36745;48.544;8.918;2023-03-21T10:33:24;97339.34;;;14.52;60.71
50774;BME280;36745;48.544;8.918;2023-03-21T10:36:45;97339.53;;;14.39;61.13
50774;BME280;36745;48.544;8.918;2023-03-21T10:40:06;97345.66;;;14.43;60.56
50774;BME280;36745;48.544;8.918;2023-03-21T10:46:54;97348.41;;;14.61;61.28
50774;BME280;36745;48.544;8.918;2023-03-21T10:50:17;97346.13;;;14.51;60.27
50774;BME280;36745;48.544;8.918;2023-03-21T10:53:40;97338.78;;;14.81;60.45
50774;BME280;36745;48.544;8.918;2023-03-21T10:57:14;97345.19;;;15.05;60.51
50774;BME280;36745;48.544;8.918;2023-03-21T11:00:38;97334.72;;;14.91;58.77
50774;BME280;36745;48.544;8.918;2023-03-21T11:04:08;97335.50;;;14.91;59.43
50774;BME280;36745;48.544;8.918;2023-03-21T11:07:28;97328.84;;;14.98;59.69
50774;BME280;36745;48.544;8.918;2023-03-21T11:14:36;97324.34;;;15.09;58.17
50774;BME280;36745;48.544;8.918;2023-03-21T11:17:57;97330.28;;;15.17;58.74
50774;BME280;36745;48.544;8.918;2023-03-21T11:21:17;97335.84;;;15.17;57.96
50774;BME280;36745;48.544;8.918;2023-03-21T11:24:38;97333.38;;;15.19;57.47
50774;BME280;36745;48.544;8.918;2023-03-21T11:28:05;97330.66;;;15.10;56.54
50774;BME280;36745;48.544;8.918;2023-03-21T11:31:38;97326.13;;;14.89;53.41
50774;BME280;36745;48.544;8.918;2023-03-21T11:38:29;97320.25;;;14.45;52.53
50774;BME280;36745;48.544;8.918;2023-03-21T11:41:50;97313.47;;;14.37;52.09
50774;BME280;36745;48.544;8.918;2023-03-21T11:45:16;97310.22;;;14.56;52.68
50774;BME280;36745;48.544;8.918;2023-03-21T11:48:42;97301.47;;;14.82;52.43
50774;BME280;36745;48.544;8.918;2023-03-21T11:52:09;97298.88;;;15.11;52.48
50774;BME280;36745;48.544;8.918;2023-03-21T11:55:43;97291.66;;;15.28;52.56
50774;BME280;36745;48.544;8.918;2023-03-21T12:09:44;97276.81;;;14.84;49.77
50774;BME280;36745;48.544;8.918;2023-03-21T12:20:28;97264.94;;;15.07;50.99
50774;BME280;36745;48.544;8.918;2023-03-21T12:24:10;97246.66;;;15.24;50.88
50774;BME280;36745;48.544;8.918;2023-03-21T12:34:56;97236.34;;;16.81;51.00
50774;BME280;36745;48.544;8.918;2023-03-21T12:38:40;97234.91;;;16.85;48.26
50774;BME280;36745;48.544;8.918;2023-03-21T12:45:44;97219.63;;;17.56;48.01
50774;BME280;36745;48.544;8.918;2023-03-21T12:49:08;97218.03;;;17.29;46.89
50774;BME280;36745;48.544;8.918;2023-03-21T12:52:34;97215.66;;;17.42;47.44
50774;BME280;36745;48.544;8.918;2023-03-21T12:56:01;97211.75;;;17.75;46.63
50774;BME280;36745;48.544;8.918;2023-03-21T12:59:29;97209.16;;;17.71;45.80
50774;BME280;36745;48.544;8.918;2023-03-21T13:02:54;97200.88;;;18.02;46.88
50774;BME280;36745;48.544;8.918;2023-03-21T13:06:18;97201.84;;;17.99;45.67
50774;BME280;36745;48.544;8.918;2023-03-21T13:09:41;97194.41;;;18.17;45.60
50774;BME280;36745;48.544;8.918;2023-03-21T13:13:07;97195.63;;;17.84;43.74
50774;BME280;36745;48.544;8.918;2023-03-21T13:16:36;97196.16;;;17.02;41.85
50774;BME280;36745;48.544;8.918;2023-03-21T13:20:06;97199.56;;;16.91;42.18
50774;BME280;36745;48.544;8.918;2023-03-21T13:23:36;97193.81;;;16.80;42.45
50774;BME280;36745;48.544;8.918;2023-03-21T13:30:28;97187.91;;;16.58;40.99
50774;BME280;36745;48.544;8.918;2023-03-21T13:33:48;97183.22;;;16.49;41.66
50774;BME280;36745;48.544;8.918;2023-03-21T13:37:18;97173.53;;;16.59;41.51
50774;BME280;36745;48.544;8.918;2023-03-21T13:41:14;97175.94;;;16.52;41.56
50774;BME280;36745;48.544;8.918;2023-03-21T13:44:43;97171.34;;;16.49;41.58
50774;BME280;36745;48.544;8.918;2023-03-21T13:48:28;97165.47;;;16.47;41.73
50774;BME280;36745;48.544;8.918;2023-03-21T13:51:54;97158.94;;;16.64;42.21
50774;BME280;36745;48.544;8.918;2023-03-21T13:55:18;97161.44;;;16.48;41.80
50774;BME280;36745;48.544;8.918;2023-03-21T14:05:36;97153.59;;;16.81;42.21
50774;BME280;36745;48.544;8.918;2023-03-21T14:08:57;97157.53;;;16.89;42.31
50774;BME280;36745;48.544;8.918;2023-03-21T14:12:29;97151.66;;;16.87;41.71
50774;BME280;36745;48.544;8.918;2023-03-21T14:15:56;97143.88;;;16.91;41.10
50774;BME280;36745;48.544;8.918;2023-03-21T14:19:18;97140.84;;;16.74;41.05
50774;BME280;36745;48.544;8.918;2023-03-21T14:22:39;97139.69;;;16.81;41.33
50774;BME280;36745;48.544;8.918;2023-03-21T14:25:59;97139.91;;;16.77;40.54
50774;BME280;36745;48.544;8.918;2023-03-21T14:29:23;97134.53;;;16.74;41.26
50774;BME280;36745;48.544;8.918;2023-03-21T14:32:44;97135.09;;;16.78;41.38
50774;BME280;36745;48.544;8.918;2023-03-21T14:36:12;97135.22;;;16.69;41.12
50774;BME280;36745;48.544;8.918;2023-03-21T14:39:33;97129.53;;;16.78;41.28
50774;BME280;36745;48.544;8.918;2023-03-21T14:42:54;97127.72;;;16.75;41.43
50774;BME280;36745;48.544;8.918;2023-03-21T14:46:14;97116.47;;;16.84;41.45
50774;BME280;36745;48.544;8.918;2023-03-21T14:49:36;97113.78;;;16.95;41.76
50774;BME280;36745;48.544;8.918;2023-03-21T14:52:56;97117.16;;;16.99;41.86
50774;BME280;36745;48.544;8.918;2023-03-21T14:56:21;97109.41;;;17.09;42.30
50774;BME280;36745;48.544;8.918;2023-03-21T14:59:42;97112.81;;;16.98;40.98
50774;BME280;36745;48.544;8.918;2023-03-21T15:03:02;97109.75;;;16.76;41.31
50774;BME280;36745;48.544;8.918;2023-03-21T15:06:22;97112.69;;;16.67;41.12
50774;BME280;36745;48.544;8.918;2023-03-21T15:09:53;97114.44;;;16.50;40.80
50774;BME280;36745;48.544;8.918;2023-03-21T15:13:21;97108.31;;;16.46;40.67
50774;BME280;36745;48.544;8.918;2023-03-21T15:16:41;97104.25;;;16.47;41.19
50774;BME280;36745;48.544;8.918;2023-03-21T15:20:01;97106.22;;;16.41;41.12
50774;BME280;36745;48.544;8.918;2023-03-21T15:23:34;97121.81;;;16.53;41.83
50774;BME280;36745;48.544;8.918;2023-03-21T15:27:00;97112.59;;;16.47;41.42
50774;BME280;36745;48.544;8.918;2023-03-21T15:30:26;97117.91;;;16.45;41.49
50774;BME280;36745;48.544;8.918;2023-03-21T15:33:48;97109.81;;;16.47;41.85
50774;BME280;36745;48.544;8.918;2023-03-21T15:37:15;97111.09;;;16.46;41.87
50774;BME280;36745;48.544;8.918;2023-03-21T15:40:35;97109.16;;;16.52;42.09
50774;BME280;36745;48.544;8.918;2023-03-21T15:51:05;97113.28;;;16.56;42.17
50774;BME280;36745;48.544;8.918;2023-03-21T15:54:28;97105.81;;;16.48;42.27
50774;BME280;36745;48.544;8.918;2023-03-21T15:57:48;97112.34;;;16.45;42.33
50774;BME280;36745;48.544;8.918;2023-03-21T16:01:16;97129.72;;;16.40;42.31
50774;BME280;36745;48.544;8.918;2023-03-21T16:04:57;97123.22;;;16.28;42.36
50774;BME280;36745;48.544;8.918;2023-03-21T16:08:25;97120.66;;;16.24;42.92
50774;BME280;36745;48.544;8.918;2023-03-21T16:11:56;97119.47;;;16.31;43.14
50774;BME280;36745;48.544;8.918;2023-03-21T16:15:16;97115.47;;;16.17;42.96
50774;BME280;36745;48.544;8.918;2023-03-21T16:18:36;97116.00;;;16.01;43.20
50774;BME280;36745;48.544;8.918;2023-03-21T16:21:56;97109.19;;;16.02;43.16
50774;BME280;36745;48.544;8.918;2023-03-21T16:25:16;97117.63;;;15.93;43.37
50774;BME280;36745;48.544;8.918;2023-03-21T16:28:36;97117.72;;;15.84;43.17
50774;BME280;36745;48.544;8.918;2023-03-21T16:31:56;97114.38;;;15.80;43.44
50774;BME280;36745;48.544;8.918;2023-03-21T16:35:16;97126.16;;;15.75;43.45
50774;BME280;36745;48.544;8.918;2023-03-21T16:38:36;97129.22;;;15.62;43.62
50774;BME280;36745;48.544;8.918;2023-03-21T16:41:56;97128.56;;;15.67;43.82
50774;BME280;36745;48.544;8.918;2023-03-21T16:45:16;97129.69;;;15.61;43.73
50774;BME280;36745;48.544;8.918;2023-03-21T16:48:36;97123.63;;;15.47;44.12
50774;BME280;36745;48.544;8.918;2023-03-21T16:51:56;97130.44;;;15.46;43.83
50774;BME280;36745;48.544;8.918;2023-03-21T16:55:16;97137.88;;;15.40;43.79
50774;BME280;36745;48.544;8.918;2023-03-21T16:58:36;97146.66;;;15.24;44.07
50774;BME280;36745;48.544;8.918;2023-03-21T17:01:56;97140.25;;;15.18;44.29
50774;BME280;36745;48.544;8.918;2023-03-21T17:05:16;97148.56;;;15.18;44.48
50774;BME280;36745;48.544;8.918;2023-03-21T17:08:36;97147.03;;;15.17;44.62
50774;BME280;36745;48.544;8.918;2023-03-21T17:11:56;97149.88;;;15.08;44.73
50774;BME280;36745;48.544;8.918;2023-03-21T17:15:16;97140.81;;;14.84;45.48
50774;BME280;36745;48.544;8.918;2023-03-21T17:18:35;97140.84;;;14.75;45.73
50774;BME280;36745;48.544;8.918;2023-03-21T17:21:55;97148.16;;;14.63;46.05
50774;BME280;36745;48.544;8.918;2023-03-21T17:25:16;97146.22;;;14.54;46.19
50774;BME280;36745;48.544;8.918;2023-03-21T17:28:37;97147.78;;;14.55;46.22
50774;BME280;36745;48.544;8.918;2023-03-21T17:31:57;97142.94;;;14.41;46.61
50774;BME280;36745;48.544;8.918;2023-03-21T17:35:17;97147.22;;;14.33;46.98
50774;BME280;36745;48.544;8.918;2023-03-21T17:38:37;97154.84;;;14.23;47.48
50774;BME280;36745;48.544;8.918;2023-03-21T17:41:57;97157.47;;;14.18;47.33
50774;BME280;36745;48.544;8.918;2023-03-21T17:45:17;97160.56;;;14.11;47.85
50774;BME280;36745;48.544;8.918;2023-03-21T17:48:36;97155.06;;;14.02;48.24
50774;BME280;36745;48.544;8.918;2023-03-21T17:51:56;97161.69;;;13.95;48.20
50774;BME280;36745;48.544;8.918;2023-03-21T17:55:17;97158.78;;;13.90;48.88
50774;BME280;36745;48.544;8.918;2023-03-21T17:58:39;97166.19;;;13.83;49.18
50774;BME280;36745;48.544;8.918;2023-03-21T18:01:59;97161.72;;;13.77;49.63
50774;BME280;36745;48.544;8.918;2023-03-21T18:05:19;97167.44;;;13.73;49.54
50774;BME280;36745;48.544;8.918;2023-03-21T18:08:39;97165.94;;;13.63;49.55
50774;BME280;36745;48.544;8.918;2023-03-21T18:12:00;97169.00;;;13.56;49.75
50774;BME280;36745;48.544;8.918;2023-03-21T18:15:22;97166.41;;;13.53;49.90
50774;BME280;36745;48.544;8.918;2023-03-21T18:18:42;97171.63;;;13.51;50.32
50774;BME280;36745;48.544;8.918;2023-03-21T18:22:03;97165.94;;;13.45;50.73
50774;BME280;36745;48.544;8.918;2023-03-21T18:25:23;97175.50;;;13.44;51.11
50774;BME280;36745;48.544;8.918;2023-03-21T18:28:44;97178.28;;;13.44;51.66
50774;BME280;36745;48.544;8.918;2023-03-21T18:32:04;97185.03;;;13.43;52.01
50774;BME280;36745;48.544;8.918;2023-03-21T18:35:24;97191.81;;;13.42;52.64
50774;BME280;36745;48.544;8.918;2023-03-21T18:38:44;97192.72;;;13.39;52.91
50774;BME280;36745;48.544;8.918;2023-03-21T18:42:05;97183.78;;;13.35;53.24
50774;BME280;36745;48.544;8.918;2023-03-21T18:45:24;97187.47;;;13.23;53.63
50774;BME280;36745;48.544;8.918;2023-03-21T18:48:45;97181.19;;;13.22;54.09
50774;BME280;36745;48.544;8.918;2023-03-21T18:52:06;97178.28;;;13.17;54.33
50774;BME280;36745;48.544;8.918;2023-03-21T18:55:26;97180.72;;;13.15;54.74
50774;BME280;36745;48.544;8.918;2023-03-21T18:58:46;97189.03;;;13.15;55.01
50774;BME280;36745;48.544;8.918;2023-03-21T19:02:06;97181.03;;;13.17;55.08
50774;BME280;36745;48.544;8.918;2023-03-21T19:05:26;97180.41;;;13.13;55.68
50774;BME280;36745;48.544;8.918;2023-03-21T19:08:45;97167.03;;;13.11;55.67
50774;BME280;36745;48.544;8.918;2023-03-21T19:12:05;97177.63;;;13.13;56.15
50774;BME280;36745;48.544;8.918;2023-03-21T19:15:25;97185.16;;;13.12;56.74
50774;BME280;36745;48.544;8.918;2023-03-21T19:18:45;97177.97;;;13.15;56.86
50774;BME280;36745;48.544;8.918;2023-03-21T19:22:05;97180.09;;;13.11;58.05
50774;BME280;36745;48.544;8.918;2023-03-21T19:25:25;97184.53;;;13.08;58.87
50774;BME280;36745;48.544;8.918;2023-03-21T19:28:45;97198.06;;;13.06;59.08
50774;BME280;36745;48.544;8.918;2023-03-21T19:32:05;97200.53;;;13.04;58.95
50774;BME280;36745;48.544;8.918;2023-03-21T19:35:26;97196.66;;;13.01;59.14
50774;BME280;36745;48.544;8.918;2023-03-21T19:38:45;97193.13;;;12.92;60.37